sensor_id;sensor_type;location;lat;lon;timestamp;temperature;humidity
2543;DHT22;1116;51.502;7.414;2023-04-03T00:01:55;2.00;99.90
2543;DHT22;1116;51.502;7.414;2023-04-03T00:04:26;2.00;99.90
2543;DHT22;1116;51.502;7.414;2023-04-03T00:06:58;2.00;99.90
2543;DHT22;1116;51.502;7.414;2023-04-03T00:09:31;2.00;99.90
2543;DHT22;1116;51.502;7.414;2023-04-03T00:12:03;1.90;99.90
2543;DHT22;1116;51.502;7.414;2023-04-03T00:14:34;1.90;99.90
2543;DHT22;1116;51.502;7.414;2023-04-03T00:17:05;1.90;99.90
2543;DHT22;1116;51.502;7.414;2023-04-03T00:19:38;1.90;99.90
2543;DHT22;1116;51.502;7.414;2023-04-03T00:22:09;1.90;99.90
2543;DHT22;1116;51.502;7.414;2023-04-03T00:24:43;1.80;99.90
2543;DHT22;1116;51.502;7.414;2023-04-03T00:27:14;2.00;99.90
2543;DHT22;1116;51.502;7.414;2023-04-03T00:29:45;1.70;99.90
2543;DHT22;1116;51.502;7.414;2023-04-03T00:32:16;1.70;99.90
2543;DHT22;1116;51.502;7.414;2023-04-03T00:34:47;1.70;99.90
2543;DHT22;1116;51.502;7.414;2023-04-03T00:37:18;1.60;99.90
2543;DHT22;1116;51.502;7.414;2023-04-03T00:39:51;1.60;99.90
2543;DHT22;1116;51.502;7.414;2023-04-03T00:42:23;1.60;99.90
2543;DHT22;1116;51.502;7.414;2023-04-03T00:47:55;1.70;99.90
2543;DHT22;1116;51.502;7.414;2023-04-03T00:50:28;1.70;99.90
2543;DHT22;1116;51.502;7.414;2023-04-03T00:53:00;1.80;99.90
2543;DHT22;1116;51.502;7.414;2023-04-03T00:55:35;1.80;99.90
2543;DHT22;1116;51.502;7.414;2023-04-03T00:58:09;1.90;99.90
2543;DHT22;1116;51.502;7.414;2023-04-03T01:00:46;1.90;99.90
2543;DHT22;1116;51.502;7.414;2023-04-03T01:03:17;2.00;99.90
2543;DHT22;1116;51.502;7.414;2023-04-03T01:05:48;2.10;99.90
2543;DHT22;1116;51.502;7.414;2023-04-03T01:08:19;2.10;99.90
2543;DHT22;1116;51.502;7.414;2023-04-03T01:10:53;2.20;99.90
2543;DHT22;1116;51.502;7.414;2023-04-03T01:13:27;2.20;99.90
2543;DHT22;1116;51.502;7.414;2023-04-03T01:16:01;2.20;99.90
2543;DHT22;1116;51.502;7.414;2023-04-03T01:18:33;2.20;99.90
2543;DHT22;1116;51.502;7.414;2023-04-03T01:24:16;2.10;99.90
2543;DHT22;1116;51.502;7.414;2023-04-03T01:26:51;2.10;99.90
2543;DHT22;1116;51.502;7.414;2023-04-03T01:29:22;2.10;99.90
2543;DHT22;1116;51.502;7.414;2023-04-03T01:31:57;2.20;99.90
2543;DHT22;1116;51.502;7.414;2023-04-03T01:34:30;2.20;99.90
2543;DHT22;1116;51.502;7.414;2023-04-03T01:37:00;2.20;99.90
2543;DHT22;1116;51.502;7.414;2023-04-03T01:39:32;2.20;99.90
2543;DHT22;1116;51.502;7.414;2023-04-03T01:42:03;2.30;99.90
2543;DHT22;1116;51.502;7.414;2023-04-03T01:44:34;2.80;99.90
2543;DHT22;1116;51.502;7.414;2023-04-03T01:47:08;2.30;99.90
2543;DHT22;1116;51.502;7.414;2023-04-03T01:49:39;2.40;99.90
2543;DHT22;1116;51.502;7.414;2023-04-03T01:52:10;2.30;99.90
2543;DHT22;1116;51.502;7.414;2023-04-03T01:54:41;2.30;99.90
2543;DHT22;1116;51.502;7.414;2023-04-03T01:57:12;2.30;99.90
2543;DHT22;1116;51.502;7.414;2023-04-03T01:59:44;2.30;99.90
2543;DHT22;1116;51.502;7.414;2023-04-03T02:02:17;2.30;99.90
2543;DHT22;1116;51.502;7.414;2023-04-03T02:04:52;2.20;99.90
2543;DHT22;1116;51.502;7.414;2023-04-03T02:07:23;2.30;99.90
2543;DHT22;1116;51.502;7.414;2023-04-03T02:09:54;2.30;99.90
2543;DHT22;1116;51.502;7.414;2023-04-03T02:12:26;2.30;99.90
2543;DHT22;1116;51.502;7.414;2023-04-03T02:14:57;2.30;99.90
2543;DHT22;1116;51.502;7.414;2023-04-03T02:17:31;2.30;99.90
2543;DHT22;1116;51.502;7.414;2023-04-03T02:20:02;2.30;99.90
2543;DHT22;1116;51.502;7.414;2023-04-03T02:22:33;2.40;99.40
2543;DHT22;1116;51.502;7.414;2023-04-03T02:25:11;2.20;99.10
2543;DHT22;1116;51.502;7.414;2023-04-03T02:27:42;2.30;99.90
2543;DHT22;1116;51.502;7.414;2023-04-03T02:30:13;2.20;99.90
2543;DHT22;1116;51.502;7.414;2023-04-03T02:32:49;2.20;99.10
2543;DHT22;1116;51.502;7.414;2023-04-03T02:35:20;2.20;97.60
2543;DHT22;1116;51.502;7.414;2023-04-03T02:37:51;2.20;99.80
2543;DHT22;1116;51.502;7.414;2023-04-03T02:40:22;2.20;98.70
2543;DHT22;1116;51.502;7.414;2023-04-03T02:42:53;2.20;98.30
2543;DHT22;1116;51.502;7.414;2023-04-03T02:45:24;2.20;96.80
2543;DHT22;1116;51.502;7.414;2023-04-03T02:47:58;2.20;96.00
2543;DHT22;1116;51.502;7.414;2023-04-03T02:50:29;2.20;96.30
2543;DHT22;1116;51.502;7.414;2023-04-03T02:53:00;2.20;97.80
2543;DHT22;1116;51.502;7.414;2023-04-03T02:55:34;2.20;97.70
2543;DHT22;1116;51.502;7.414;2023-04-03T02:58:05;2.50;99.80
2543;DHT22;1116;51.502;7.414;2023-04-03T03:00:37;2.00;97.80
2543;DHT22;1116;51.502;7.414;2023-04-03T03:03:10;2.00;95.80
2543;DHT22;1116;51.502;7.414;2023-04-03T03:05:42;2.00;99.10
2543;DHT22;1116;51.502;7.414;2023-04-03T03:08:13;2.00;96.00
2543;DHT22;1116;51.502;7.414;2023-04-03T03:10:48;2.00;96.60
2543;DHT22;1116;51.502;7.414;2023-04-03T03:13:19;1.90;96.80
2543;DHT22;1116;51.502;7.414;2023-04-03T03:15:50;1.90;98.20
2543;DHT22;1116;51.502;7.414;2023-04-03T03:18:23;1.90;99.00
2543;DHT22;1116;51.502;7.414;2023-04-03T03:20:56;1.90;96.20
2543;DHT22;1116;51.502;7.414;2023-04-03T03:23:29;1.80;95.40
2543;DHT22;1116;51.502;7.414;2023-04-03T03:26:02;1.90;98.10
2543;DHT22;1116;51.502;7.414;2023-04-03T03:28:34;1.90;98.80
2543;DHT22;1116;51.502;7.414;2023-04-03T03:31:06;1.90;97.40
2543;DHT22;1116;51.502;7.414;2023-04-03T03:33:40;1.90;96.20
2543;DHT22;1116;51.502;7.414;2023-04-03T03:36:12;1.90;94.20
2543;DHT22;1116;51.502;7.414;2023-04-03T03:38:43;1.80;93.30
2543;DHT22;1116;51.502;7.414;2023-04-03T03:41:15;1.80;95.90
2543;DHT22;1116;51.502;7.414;2023-04-03T03:43:46;1.80;95.50
2543;DHT22;1116;51.502;7.414;2023-04-03T03:46:17;1.80;94.20
2543;DHT22;1116;51.502;7.414;2023-04-03T03:48:51;1.80;92.10
2543;DHT22;1116;51.502;7.414;2023-04-03T03:51:22;1.80;94.60
2543;DHT22;1116;51.502;7.414;2023-04-03T03:53:53;1.80;93.60
2543;DHT22;1116;51.502;7.414;2023-04-03T03:56:24;1.40;93.00
2543;DHT22;1116;51.502;7.414;2023-04-03T03:58:58;1.70;91.00
2543;DHT22;1116;51.502;7.414;2023-04-03T04:01:30;1.80;92.80
2543;DHT22;1116;51.502;7.414;2023-04-03T04:04:04;1.80;94.20
2543;DHT22;1116;51.502;7.414;2023-04-03T04:06:38;1.80;94.70
2543;DHT22;1116;51.502;7.414;2023-04-03T04:09:09;1.80;96.30
2543;DHT22;1116;51.502;7.414;2023-04-03T04:11:40;1.70;92.90
2543;DHT22;1116;51.502;7.414;2023-04-03T04:14:11;1.70;92.40
2543;DHT22;1116;51.502;7.414;2023-04-03T04:16:43;1.60;94.00
2543;DHT22;1116;51.502;7.414;2023-04-03T04:19:17;1.60;93.70
2543;DHT22;1116;51.502;7.414;2023-04-03T04:21:48;1.60;94.90
2543;DHT22;1116;51.502;7.414;2023-04-03T04:24:19;1.50;94.00
2543;DHT22;1116;51.502;7.414;2023-04-03T04:26:50;1.50;95.00
2543;DHT22;1116;51.502;7.414;2023-04-03T04:29:21;1.50;95.40
2543;DHT22;1116;51.502;7.414;2023-04-03T04:31:53;1.60;95.80
2543;DHT22;1116;51.502;7.414;2023-04-03T04:34:26;1.50;93.80
2543;DHT22;1116;51.502;7.414;2023-04-03T04:36:57;1.50;93.60
2543;DHT22;1116;51.502;7.414;2023-04-03T04:39:31;1.50;94.10
2543;DHT22;1116;51.502;7.414;2023-04-03T04:42:02;1.50;94.20
2543;DHT22;1116;51.502;7.414;2023-04-03T04:44:35;1.50;91.70
2543;DHT22;1116;51.502;7.414;2023-04-03T04:47:06;1.50;92.50
2543;DHT22;1116;51.502;7.414;2023-04-03T04:49:39;1.50;94.00
2543;DHT22;1116;51.502;7.414;2023-04-03T04:52:10;1.40;92.60
2543;DHT22;1116;51.502;7.414;2023-04-03T04:54:42;1.40;92.00
2543;DHT22;1116;51.502;7.414;2023-04-03T04:57:13;1.50;93.90
2543;DHT22;1116;51.502;7.414;2023-04-03T04:59:45;1.50;92.70
2543;DHT22;1116;51.502;7.414;2023-04-03T05:02:16;1.50;93.30
2543;DHT22;1116;51.502;7.414;2023-04-03T05:04:52;1.50;92.90
2543;DHT22;1116;51.502;7.414;2023-04-03T05:07:24;1.50;92.00
2543;DHT22;1116;51.502;7.414;2023-04-03T05:09:55;1.40;91.20
2543;DHT22;1116;51.502;7.414;2023-04-03T05:12:26;1.40;90.20
2543;DHT22;1116;51.502;7.414;2023-04-03T05:14:57;1.40;92.00
2543;DHT22;1116;51.502;7.414;2023-04-03T05:17:28;1.40;91.10
2543;DHT22;1116;51.502;7.414;2023-04-03T05:20:02;1.50;91.00
2543;DHT22;1116;51.502;7.414;2023-04-03T05:22:33;1.40;92.00
2543;DHT22;1116;51.502;7.414;2023-04-03T05:25:06;1.50;93.90
2543;DHT22;1116;51.502;7.414;2023-04-03T05:27:38;1.50;93.40
2543;DHT22;1116;51.502;7.414;2023-04-03T05:30:10;1.50;92.70
2543;DHT22;1116;51.502;7.414;2023-04-03T05:32:41;1.40;91.10
2543;DHT22;1116;51.502;7.414;2023-04-03T05:35:16;1.40;90.80
2543;DHT22;1116;51.502;7.414;2023-04-03T05:37:49;1.40;90.30
2543;DHT22;1116;51.502;7.414;2023-04-03T05:40:20;1.50;92.90
2543;DHT22;1116;51.502;7.414;2023-04-03T05:42:51;1.50;91.00
2543;DHT22;1116;51.502;7.414;2023-04-03T05:45:25;1.90;87.80
2543;DHT22;1116;51.502;7.414;2023-04-03T05:47:56;1.90;92.10
2543;DHT22;1116;51.502;7.414;2023-04-03T05:50:30;1.50;89.90
2543;DHT22;1116;51.502;7.414;2023-04-03T05:53:02;1.50;88.10
2543;DHT22;1116;51.502;7.414;2023-04-03T05:55:34;1.60;85.30
2543;DHT22;1116;51.502;7.414;2023-04-03T05:58:08;1.90;80.80
2543;DHT22;1116;51.502;7.414;2023-04-03T06:00:39;1.60;80.70
2543;DHT22;1116;51.502;7.414;2023-04-03T06:03:10;1.60;84.50
2543;DHT22;1116;51.502;7.414;2023-04-03T06:05:44;1.60;76.70
2543;DHT22;1116;51.502;7.414;2023-04-03T06:08:15;1.60;81.20
2543;DHT22;1116;51.502;7.414;2023-04-03T06:10:46;1.70;73.50
2543;DHT22;1116;51.502;7.414;2023-04-03T06:13:18;1.60;71.70
2543;DHT22;1116;51.502;7.414;2023-04-03T06:15:50;1.60;72.50
2543;DHT22;1116;51.502;7.414;2023-04-03T06:18:21;2.30;63.00
2543;DHT22;1116;51.502;7.414;2023-04-03T06:20:54;3.60;49.60
2543;DHT22;1116;51.502;7.414;2023-04-03T06:23:26;4.90;38.50
2543;DHT22;1116;51.502;7.414;2023-04-03T06:25:57;5.90;25.50
2543;DHT22;1116;51.502;7.414;2023-04-03T06:28:28;7.10;20.30
2543;DHT22;1116;51.502;7.414;2023-04-03T06:31:00;7.90;13.80
2543;DHT22;1116;51.502;7.414;2023-04-03T06:33:31;8.00;7.70
2543;DHT22;1116;51.502;7.414;2023-04-03T06:36:06;8.00;5.50
2543;DHT22;1116;51.502;7.414;2023-04-03T06:38:38;8.20;5.10
2543;DHT22;1116;51.502;7.414;2023-04-03T06:41:09;8.30;3.30
2543;DHT22;1116;51.502;7.414;2023-04-03T06:43:40;8.40;3.00
2543;DHT22;1116;51.502;7.414;2023-04-03T06:46:15;8.70;2.50
2543;DHT22;1116;51.502;7.414;2023-04-03T06:48:48;9.00;1.00
2543;DHT22;1116;51.502;7.414;2023-04-03T06:51:23;9.30;1.00
2543;DHT22;1116;51.502;7.414;2023-04-03T06:53:57;9.60;1.00
2543;DHT22;1116;51.502;7.414;2023-04-03T06:56:28;9.70;1.00
2543;DHT22;1116;51.502;7.414;2023-04-03T06:58:59;10.00;1.00
2543;DHT22;1116;51.502;7.414;2023-04-03T07:01:30;10.30;1.00
2543;DHT22;1116;51.502;7.414;2023-04-03T07:04:01;10.60;1.00
2543;DHT22;1116;51.502;7.414;2023-04-03T07:06:37;10.30;1.00
2543;DHT22;1116;51.502;7.414;2023-04-03T07:09:08;10.50;1.00
2543;DHT22;1116;51.502;7.414;2023-04-03T07:11:39;10.60;1.00
2543;DHT22;1116;51.502;7.414;2023-04-03T07:14:10;10.50;1.00
2543;DHT22;1116;51.502;7.414;2023-04-03T07:16:50;10.60;1.00
2543;DHT22;1116;51.502;7.414;2023-04-03T07:19:24;10.70;1.00
2543;DHT22;1116;51.502;7.414;2023-04-03T07:22:09;10.90;1.00
2543;DHT22;1116;51.502;7.414;2023-04-03T07:24:53;10.80;1.00
2543;DHT22;1116;51.502;7.414;2023-04-03T07:27:25;10.30;1.00
2543;DHT22;1116;51.502;7.414;2023-04-03T07:30:00;10.30;1.00
2543;DHT22;1116;51.502;7.414;2023-04-03T07:32:37;10.00;1.00
2543;DHT22;1116;51.502;7.414;2023-04-03T07:35:19;9.60;1.00
2543;DHT22;1116;51.502;7.414;2023-04-03T07:37:52;9.00;1.00
2543;DHT22;1116;51.502;7.414;2023-04-03T07:43:12;8.10;1.00
2543;DHT22;1116;51.502;7.414;2023-04-03T07:45:44;7.60;1.00
2543;DHT22;1116;51.502;7.414;2023-04-03T07:48:18;7.00;1.50
2543;DHT22;1116;51.502;7.414;2023-04-03T07:51:00;6.30;2.60
2543;DHT22;1116;51.502;7.414;2023-04-03T07:53:35;5.70;4.80
2543;DHT22;1116;51.502;7.414;2023-04-03T07:56:06;5.60;8.10
2543;DHT22;1116;51.502;7.414;2023-04-03T07:58:38;5.70;8.60
2543;DHT22;1116;51.502;7.414;2023-04-03T08:01:09;5.70;7.70
2543;DHT22;1116;51.502;7.414;2023-04-03T08:03:40;5.30;6.60
2543;DHT22;1116;51.502;7.414;2023-04-03T08:06:11;5.30;7.50
2543;DHT22;1116;51.502;7.414;2023-04-03T08:08:48;5.30;8.70
2543;DHT22;1116;51.502;7.414;2023-04-03T08:11:21;5.40;9.00
2543;DHT22;1116;51.502;7.414;2023-04-03T08:13:54;5.50;7.80
2543;DHT22;1116;51.502;7.414;2023-04-03T08:16:26;5.60;7.60
2543;DHT22;1116;51.502;7.414;2023-04-03T08:18:58;5.50;6.40
2543;DHT22;1116;51.502;7.414;2023-04-03T08:21:29;5.40;7.80
2543;DHT22;1116;51.502;7.414;2023-04-03T08:24:03;5.30;10.30
2543;DHT22;1116;51.502;7.414;2023-04-03T08:26:37;5.20;7.70
2543;DHT22;1116;51.502;7.414;2023-04-03T08:29:09;5.40;7.90
2543;DHT22;1116;51.502;7.414;2023-04-03T08:31:41;5.50;7.00
2543;DHT22;1116;51.502;7.414;2023-04-03T08:34:13;5.60;8.50
2543;DHT22;1116;51.502;7.414;2023-04-03T08:36:44;5.50;7.50
2543;DHT22;1116;51.502;7.414;2023-04-03T08:39:21;5.60;6.90
2543;DHT22;1116;51.502;7.414;2023-04-03T08:41:57;5.60;6.70
2543;DHT22;1116;51.502;7.414;2023-04-03T08:44:39;5.50;6.40
2543;DHT22;1116;51.502;7.414;2023-04-03T08:47:18;5.40;4.70
2543;DHT22;1116;51.502;7.414;2023-04-03T08:49:54;5.50;6.50
2543;DHT22;1116;51.502;7.414;2023-04-03T08:52:34;5.50;2.70
2543;DHT22;1116;51.502;7.414;2023-04-03T08:55:17;5.60;3.40
2543;DHT22;1116;51.502;7.414;2023-04-03T08:57:57;5.60;3.40
2543;DHT22;1116;51.502;7.414;2023-04-03T09:00:32;5.70;3.20
2543;DHT22;1116;51.502;7.414;2023-04-03T09:03:05;5.80;3.50
2543;DHT22;1116;51.502;7.414;2023-04-03T09:05:43;5.90;1.00
2543;DHT22;1116;51.502;7.414;2023-04-03T09:08:29;5.80;1.00
2543;DHT22;1116;51.502;7.414;2023-04-03T09:11:16;5.90;1.00
2543;DHT22;1116;51.502;7.414;2023-04-03T09:13:54;6.10;1.00
2543;DHT22;1116;51.502;7.414;2023-04-03T09:16:33;6.10;1.00
2543;DHT22;1116;51.502;7.414;2023-04-03T09:19:15;6.30;1.00
2543;DHT22;1116;51.502;7.414;2023-04-03T09:21:53;6.50;1.60
2543;DHT22;1116;51.502;7.414;2023-04-03T09:24:24;6.70;1.00
2543;DHT22;1116;51.502;7.414;2023-04-03T09:27:01;6.60;1.00
2543;DHT22;1116;51.502;7.414;2023-04-03T09:29:35;6.50;1.00
2543;DHT22;1116;51.502;7.414;2023-04-03T09:32:19;6.60;1.00
2543;DHT22;1116;51.502;7.414;2023-04-03T09:34:54;6.80;1.00
2543;DHT22;1116;51.502;7.414;2023-04-03T09:37:41;6.90;1.00
2543;DHT22;1116;51.502;7.414;2023-04-03T09:40:29;6.70;1.00
2543;DHT22;1116;51.502;7.414;2023-04-03T09:43:22;6.70;1.00
2543;DHT22;1116;51.502;7.414;2023-04-03T09:45:54;6.80;1.00
2543;DHT22;1116;51.502;7.414;2023-04-03T09:48:29;6.90;1.00
2543;DHT22;1116;51.502;7.414;2023-04-03T09:51:01;7.10;1.00
2543;DHT22;1116;51.502;7.414;2023-04-03T09:53:35;6.90;1.00
2543;DHT22;1116;51.502;7.414;2023-04-03T09:56:20;7.20;1.00
2543;DHT22;1116;51.502;7.414;2023-04-03T09:59:12;7.40;1.00
2543;DHT22;1116;51.502;7.414;2023-04-03T10:01:58;7.50;1.00
2543;DHT22;1116;51.502;7.414;2023-04-03T10:04:38;7.60;1.00
2543;DHT22;1116;51.502;7.414;2023-04-03T10:07:29;7.50;1.00
2543;DHT22;1116;51.502;7.414;2023-04-03T10:10:16;7.70;1.00
2543;DHT22;1116;51.502;7.414;2023-04-03T10:12:49;7.50;1.00
2543;DHT22;1116;51.502;7.414;2023-04-03T10:15:41;7.70;1.00
2543;DHT22;1116;51.502;7.414;2023-04-03T10:18:28;7.60;1.00
2543;DHT22;1116;51.502;7.414;2023-04-03T10:21:04;7.60;1.00
2543;DHT22;1116;51.502;7.414;2023-04-03T10:23:55;7.80;1.00
2543;DHT22;1116;51.502;7.414;2023-04-03T10:26:41;7.90;1.00
2543;DHT22;1116;51.502;7.414;2023-04-03T10:29:39;8.40;1.00
2543;DHT22;1116;51.502;7.414;2023-04-03T10:32:37;8.00;1.00
2543;DHT22;1116;51.502;7.414;2023-04-03T10:35:30;8.00;1.00
2543;DHT22;1116;51.502;7.414;2023-04-03T10:38:10;7.90;1.00
2543;DHT22;1116;51.502;7.414;2023-04-03T10:40:50;8.10;1.00
2543;DHT22;1116;51.502;7.414;2023-04-03T10:43:32;8.20;1.00
2543;DHT22;1116;51.502;7.414;2023-04-03T10:46:08;8.10;1.00
2543;DHT22;1116;51.502;7.414;2023-04-03T10:48:55;8.10;1.00
2543;DHT22;1116;51.502;7.414;2023-04-03T10:51:38;7.90;1.00
2543;DHT22;1116;51.502;7.414;2023-04-03T10:54:13;8.00;1.00
2543;DHT22;1116;51.502;7.414;2023-04-03T10:56:50;8.10;1.00
2543;DHT22;1116;51.502;7.414;2023-04-03T10:59:43;8.10;1.00
2543;DHT22;1116;51.502;7.414;2023-04-03T11:02:19;8.20;1.00
2543;DHT22;1116;51.502;7.414;2023-04-03T11:05:03;8.10;1.00
2543;DHT22;1116;51.502;7.414;2023-04-03T11:07:39;8.20;1.00
2543;DHT22;1116;51.502;7.414;2023-04-03T11:10:14;8.40;1.00
2543;DHT22;1116;51.502;7.414;2023-04-03T11:12:50;8.60;1.00
2543;DHT22;1116;51.502;7.414;2023-04-03T11:15:24;8.60;1.00
2543;DHT22;1116;51.502;7.414;2023-04-03T11:18:01;8.40;1.00
2543;DHT22;1116;51.502;7.414;2023-04-03T11:20:35;8.50;1.00
2543;DHT22;1116;51.502;7.414;2023-04-03T11:23:13;8.60;1.00
2543;DHT22;1116;51.502;7.414;2023-04-03T11:25:54;8.70;1.00
2543;DHT22;1116;51.502;7.414;2023-04-03T11:28:30;8.60;1.00
2543;DHT22;1116;51.502;7.414;2023-04-03T11:31:13;8.70;1.00
2543;DHT22;1116;51.502;7.414;2023-04-03T11:33:53;8.80;1.00
2543;DHT22;1116;51.502;7.414;2023-04-03T11:36:33;8.90;1.00
2543;DHT22;1116;51.502;7.414;2023-04-03T11:39:15;9.00;1.00
2543;DHT22;1116;51.502;7.414;2023-04-03T11:41:48;8.90;1.00
2543;DHT22;1116;51.502;7.414;2023-04-03T11:44:35;8.80;1.00
2543;DHT22;1116;51.502;7.414;2023-04-03T11:47:07;8.80;1.00
2543;DHT22;1116;51.502;7.414;2023-04-03T11:49:57;8.90;1.00
2543;DHT22;1116;51.502;7.414;2023-04-03T11:53:02;9.10;1.00
2543;DHT22;1116;51.502;7.414;2023-04-03T11:55:56;8.90;1.00
2543;DHT22;1116;51.502;7.414;2023-04-03T11:58:30;9.10;1.00
2543;DHT22;1116;51.502;7.414;2023-04-03T12:01:09;9.00;1.00
2543;DHT22;1116;51.502;7.414;2023-04-03T12:03:56;9.00;1.00
2543;DHT22;1116;51.502;7.414;2023-04-03T12:09:56;9.00;1.00
2543;DHT22;1116;51.502;7.414;2023-04-03T12:12:37;9.00;1.00
2543;DHT22;1116;51.502;7.414;2023-04-03T12:15:25;9.40;1.00
2543;DHT22;1116;51.502;7.414;2023-04-03T12:21:22;8.90;1.00
2543;DHT22;1116;51.502;7.414;2023-04-03T12:23:59;8.90;1.00
2543;DHT22;1116;51.502;7.414;2023-04-03T12:26:43;8.90;1.00
2543;DHT22;1116;51.502;7.414;2023-04-03T12:29:21;8.80;1.00
2543;DHT22;1116;51.502;7.414;2023-04-03T12:32:04;8.80;1.00
2543;DHT22;1116;51.502;7.414;2023-04-03T12:34:51;8.80;1.00
2543;DHT22;1116;51.502;7.414;2023-04-03T12:37:48;9.10;1.00
2543;DHT22;1116;51.502;7.414;2023-04-03T12:40:26;9.30;1.00
2543;DHT22;1116;51.502;7.414;2023-04-03T12:43:15;9.50;1.00
2543;DHT22;1116;51.502;7.414;2023-04-03T12:45:58;9.40;1.00
2543;DHT22;1116;51.502;7.414;2023-04-03T12:48:31;9.20;1.00
2543;DHT22;1116;51.502;7.414;2023-04-03T12:51:05;9.20;1.00
2543;DHT22;1116;51.502;7.414;2023-04-03T12:53:37;9.10;1.00
2543;DHT22;1116;51.502;7.414;2023-04-03T12:56:24;9.00;1.00
2543;DHT22;1116;51.502;7.414;2023-04-03T12:59:15;9.00;1.00
2543;DHT22;1116;51.502;7.414;2023-04-03T13:01:53;9.10;1.00
2543;DHT22;1116;51.502;7.414;2023-04-03T13:04:26;9.40;1.00
2543;DHT22;1116;51.502;7.414;2023-04-03T13:06:59;9.50;1.00
2543;DHT22;1116;51.502;7.414;2023-04-03T13:09:31;9.30;1.00
2543;DHT22;1116;51.502;7.414;2023-04-03T13:12:08;9.30;1.00
2543;DHT22;1116;51.502;7.414;2023-04-03T13:14:52;9.40;1.00
2543;DHT22;1116;51.502;7.414;2023-04-03T13:17:27;9.30;1.00
2543;DHT22;1116;51.502;7.414;2023-04-03T13:20:13;9.30;1.00
2543;DHT22;1116;51.502;7.414;2023-04-03T13:22:52;9.40;1.00
2543;DHT22;1116;51.502;7.414;2023-04-03T13:25:26;9.30;1.00
2543;DHT22;1116;51.502;7.414;2023-04-03T13:27:58;9.40;1.00
2543;DHT22;1116;51.502;7.414;2023-04-03T13:30:56;9.50;1.00
2543;DHT22;1116;51.502;7.414;2023-04-03T13:33:30;9.70;1.00
2543;DHT22;1116;51.502;7.414;2023-04-03T13:36:08;9.50;1.00
2543;DHT22;1116;51.502;7.414;2023-04-03T13:38:39;9.30;1.00
2543;DHT22;1116;51.502;7.414;2023-04-03T13:41:24;9.30;1.00
2543;DHT22;1116;51.502;7.414;2023-04-03T13:44:15;9.30;1.00
2543;DHT22;1116;51.502;7.414;2023-04-03T13:46:50;9.40;1.00
2543;DHT22;1116;51.502;7.414;2023-04-03T13:49:27;9.40;1.00
2543;DHT22;1116;51.502;7.414;2023-04-03T13:52:01;9.20;1.00
2543;DHT22;1116;51.502;7.414;2023-04-03T13:54:36;9.30;1.00
2543;DHT22;1116;51.502;7.414;2023-04-03T13:57:14;9.00;1.00
2543;DHT22;1116;51.502;7.414;2023-04-03T13:59:46;9.10;1.00
2543;DHT22;1116;51.502;7.414;2023-04-03T14:02:22;9.10;1.00
2543;DHT22;1116;51.502;7.414;2023-04-03T14:04:57;8.90;1.00
2543;DHT22;1116;51.502;7.414;2023-04-03T14:07:30;8.70;1.00
2543;DHT22;1116;51.502;7.414;2023-04-03T14:10:01;8.90;1.00
2543;DHT22;1116;51.502;7.414;2023-04-03T14:12:35;9.50;1.00
2543;DHT22;1116;51.502;7.414;2023-04-03T14:15:15;9.60;1.00
2543;DHT22;1116;51.502;7.414;2023-04-03T14:17:50;9.30;1.00
2543;DHT22;1116;51.502;7.414;2023-04-03T14:20:27;9.10;1.00
2543;DHT22;1116;51.502;7.414;2023-04-03T14:23:00;8.80;1.00
2543;DHT22;1116;51.502;7.414;2023-04-03T14:25:34;9.30;1.00
2543;DHT22;1116;51.502;7.414;2023-04-03T14:28:15;9.00;1.00
2543;DHT22;1116;51.502;7.414;2023-04-03T14:30:48;9.30;1.00
2543;DHT22;1116;51.502;7.414;2023-04-03T14:33:22;9.00;1.00
2543;DHT22;1116;51.502;7.414;2023-04-03T14:35:55;9.00;1.00
2543;DHT22;1116;51.502;7.414;2023-04-03T14:38:28;9.10;1.00
2543;DHT22;1116;51.502;7.414;2023-04-03T14:40:59;9.20;1.00
2543;DHT22;1116;51.502;7.414;2023-04-03T14:43:47;9.00;1.00
2543;DHT22;1116;51.502;7.414;2023-04-03T14:46:21;9.00;1.00
2543;DHT22;1116;51.502;7.414;2023-04-03T14:49:16;9.00;1.00
2543;DHT22;1116;51.502;7.414;2023-04-03T14:51:50;9.00;1.00
2543;DHT22;1116;51.502;7.414;2023-04-03T14:54:23;8.90;1.00
2543;DHT22;1116;51.502;7.414;2023-04-03T14:56:59;9.00;1.00
2543;DHT22;1116;51.502;7.414;2023-04-03T14:59:31;9.20;1.00
2543;DHT22;1116;51.502;7.414;2023-04-03T15:02:02;9.30;1.00
2543;DHT22;1116;51.502;7.414;2023-04-03T15:04:37;9.30;1.00
2543;DHT22;1116;51.502;7.414;2023-04-03T15:07:08;9.20;1.00
2543;DHT22;1116;51.502;7.414;2023-04-03T15:09:40;9.10;1.00
2543;DHT22;1116;51.502;7.414;2023-04-03T15:12:11;9.00;1.00
2543;DHT22;1116;51.502;7.414;2023-04-03T15:14:43;9.00;1.00
2543;DHT22;1116;51.502;7.414;2023-04-03T15:17:27;8.90;1.00
2543;DHT22;1116;51.502;7.414;2023-04-03T15:20:02;8.90;1.00
2543;DHT22;1116;51.502;7.414;2023-04-03T15:22:34;8.90;1.00
2543;DHT22;1116;51.502;7.414;2023-04-03T15:25:07;8.90;1.00
2543;DHT22;1116;51.502;7.414;2023-04-03T15:27:40;8.70;1.00
2543;DHT22;1116;51.502;7.414;2023-04-03T15:30:16;8.70;1.00
2543;DHT22;1116;51.502;7.414;2023-04-03T15:32:48;8.90;1.00
2543;DHT22;1116;51.502;7.414;2023-04-03T15:35:24;8.80;1.00
2543;DHT22;1116;51.502;7.414;2023-04-03T15:37:55;8.70;1.00
2543;DHT22;1116;51.502;7.414;2023-04-03T15:40:29;8.60;1.00
2543;DHT22;1116;51.502;7.414;2023-04-03T15:43:00;8.60;1.00
2543;DHT22;1116;51.502;7.414;2023-04-03T15:45:32;8.60;1.00
2543;DHT22;1116;51.502;7.414;2023-04-03T15:48:05;8.70;1.00
2543;DHT22;1116;51.502;7.414;2023-04-03T15:50:39;8.80;1.00
2543;DHT22;1116;51.502;7.414;2023-04-03T15:53:13;8.70;1.00
2543;DHT22;1116;51.502;7.414;2023-04-03T15:55:44;8.80;1.00
2543;DHT22;1116;51.502;7.414;2023-04-03T15:58:15;8.80;1.00
2543;DHT22;1116;51.502;7.414;2023-04-03T16:00:46;8.50;1.00
2543;DHT22;1116;51.502;7.414;2023-04-03T16:03:20;8.60;1.00
2543;DHT22;1116;51.502;7.414;2023-04-03T16:05:57;9.00;1.00
2543;DHT22;1116;51.502;7.414;2023-04-03T16:08:29;8.70;1.00
2543;DHT22;1116;51.502;7.414;2023-04-03T16:11:00;8.60;1.00
2543;DHT22;1116;51.502;7.414;2023-04-03T16:13:31;8.60;1.00
2543;DHT22;1116;51.502;7.414;2023-04-03T16:16:04;8.60;1.00
2543;DHT22;1116;51.502;7.414;2023-04-03T16:18:35;8.50;1.00
2543;DHT22;1116;51.502;7.414;2023-04-03T16:21:10;8.70;1.00
2543;DHT22;1116;51.502;7.414;2023-04-03T16:23:42;8.60;1.00
2543;DHT22;1116;51.502;7.414;2023-04-03T16:26:16;8.50;1.00
2543;DHT22;1116;51.502;7.414;2023-04-03T16:28:48;8.50;1.00
2543;DHT22;1116;51.502;7.414;2023-04-03T16:31:19;8.10;1.00
2543;DHT22;1116;51.502;7.414;2023-04-03T16:33:50;8.10;1.00
2543;DHT22;1116;51.502;7.414;2023-04-03T16:36:24;8.10;1.00
2543;DHT22;1116;51.502;7.414;2023-04-03T16:38:55;8.20;1.00
2543;DHT22;1116;51.502;7.414;2023-04-03T16:41:26;8.20;1.00
2543;DHT22;1116;51.502;7.414;2023-04-03T16:43:57;8.20;1.00
2543;DHT22;1116;51.502;7.414;2023-04-03T16:46:31;8.00;1.00
2543;DHT22;1116;51.502;7.414;2023-04-03T16:49:02;8.00;1.00
2543;DHT22;1116;51.502;7.414;2023-04-03T16:51:39;8.00;1.00
2543;DHT22;1116;51.502;7.414;2023-04-03T16:54:11;8.10;1.00
2543;DHT22;1116;51.502;7.414;2023-04-03T16:56:44;8.00;1.00
2543;DHT22;1116;51.502;7.414;2023-04-03T16:59:15;8.00;1.00
2543;DHT22;1116;51.502;7.414;2023-04-03T17:01:46;8.00;1.00
2543;DHT22;1116;51.502;7.414;2023-04-03T17:04:17;7.90;1.00
2543;DHT22;1116;51.502;7.414;2023-04-03T17:06:51;7.90;1.00
2543;DHT22;1116;51.502;7.414;2023-04-03T17:09:22;7.70;1.00
2543;DHT22;1116;51.502;7.414;2023-04-03T17:11:53;7.70;1.00
2543;DHT22;1116;51.502;7.414;2023-04-03T17:14:25;7.70;1.00
2543;DHT22;1116;51.502;7.414;2023-04-03T17:16:56;7.70;1.00
2543;DHT22;1116;51.502;7.414;2023-04-03T17:19:27;7.80;1.00
2543;DHT22;1116;51.502;7.414;2023-04-03T17:22:01;7.70;1.00
2543;DHT22;1116;51.502;7.414;2023-04-03T17:24:32;7.60;1.00
2543;DHT22;1116;51.502;7.414;2023-04-03T17:27:04;7.50;1.00
2543;DHT22;1116;51.502;7.414;2023-04-03T17:29:36;7.40;1.00
2543;DHT22;1116;51.502;7.414;2023-04-03T17:32:07;7.30;1.00
2543;DHT22;1116;51.502;7.414;2023-04-03T17:34:38;7.80;1.00